Time;durP1;ratioP1;P1;durP2;ratioP2;P2;SDS_P1;SDS_P2;PMS_P1;PMS_P2;Temp;Humidity;BMP_temperature;BMP_pressure;BME280_temperature;BME280_humidity;BME280_pressure;Samples;Min_cycle;Max_cycle;Signal;HPM_P1;HPM_P2
2021/07/25 00:01:00;;;;;;;14.10;11.73;;;;;;;17.04;75.49;99717.39;1701956;83;20136;-68
2021/07/25 00:03:27;;;;;;;17.73;12.20;;;;;;;16.96;75.76;99716.77;1699496;84;21022;-68
2021/07/25 00:05:53;;;;;;;;;;;;;;;16.97;75.69;99712.31;1701991;83;21042;-68
2021/07/25 00:08:19;;;;;;;15.60;11.48;;;;;;;17.03;75.50;99715.77;1693433;83;20108;-68
2021/07/25 00:10:46;;;;;;;16.65;12.30;;;;;;;17.01;75.57;99707.81;1699579;84;21030;-68
2021/07/25 00:13:15;;;;;;;17.07;12.58;;;;;;;17.04;75.68;99697.55;1708676;83;21008;-66
2021/07/25 00:15:43;;;;;;;15.55;12.35;;;;;;;17.05;75.68;99707.44;1716762;83;21007;-66
2021/07/25 00:18:10;;;;;;;15.50;12.07;;;;;;;17.04;75.68;99707.77;1713959;83;21019;-66
2021/07/25 00:20:36;;;;;;;16.40;12.10;;;;;;;17.03;75.63;99700.08;1700028;83;21030;-66
2021/07/25 00:23:03;;;;;;;17.50;11.48;;;;;;;17.06;75.57;99710.44;1706529;83;21035;-66
2021/07/25 00:25:29;;;;;;;15.55;11.70;;;;;;;17.08;75.62;99708.73;1673495;84;20979;-67
2021/07/25 00:27:56;;;;;;;18.27;12.90;;;;;;;17.09;75.53;99704.86;1710922;83;21047;-67
2021/07/25 00:30:24;;;;;;;15.93;12.33;;;;;;;17.05;75.51;99710.19;1717261;83;21047;-67
2021/07/25 00:32:50;;;;;;;17.55;12.30;;;;;;;16.99;75.58;99700.45;1692985;83;21063;-66
2021/07/25 00:38:23;;;;;;;16.48;12.58;;;;;;;16.95;75.57;99698.64;1814176;79;22657;-67
2021/07/25 00:40:49;;;;;;;17.37;12.25;;;;;;;16.78;75.69;99702.09;1758826;80;21631;-67
2021/07/25 00:43:28;;;;;;;17.12;12.00;;;;;;;16.74;75.91;99702.47;1759060;81;21018;-67
2021/07/25 00:45:55;;;;;;;16.60;12.25;;;;;;;16.75;75.90;99702.73;1760930;80;21092;-67
2021/07/25 00:48:24;;;;;;;;;;;;;;;16.76;75.97;99707.90;1764024;81;21469;-67
2021/07/25 00:50:50;;;;;;;15.83;12.13;;;;;;;16.74;75.92;99700.54;1759777;80;20102;-67
2021/07/25 00:53:17;;;;;;;;;;;;;;;16.67;76.06;99706.22;1763920;81;21033;-67
2021/07/25 00:55:43;;;;;;;17.57;12.23;;;;;;;16.62;76.27;99704.95;1761057;80;20122;-68
2021/07/25 00:58:10;;;;;;;16.45;12.70;;;;;;;16.52;76.65;99707.92;1760955;81;20990;-67
2021/07/25 01:00:36;;;;;;;14.38;12.18;;;;;;;16.53;76.78;99706.81;1756685;80;21054;-67
2021/07/25 01:03:28;;;;;;;;;;;;;;;16.55;76.61;99708.11;1760947;81;21521;-67
2021/07/25 01:06:19;;;;;;;15.40;12.05;;;;;;;16.54;76.51;99709.26;1760475;80;20454;-67
2021/07/25 01:09:01;;;;;;;17.32;12.40;;;;;;;16.44;76.78;99710.30;1761217;81;21006;-67
2021/07/25 01:11:47;;;;;;;17.82;11.63;;;;;;;16.36;77.01;99705.56;1760298;81;21022;-68
2021/07/25 01:14:25;;;;;;;15.48;11.80;;;;;;;16.29;77.44;99707.92;1761098;80;21623;-67
2021/07/25 01:16:52;;;;;;;15.45;11.57;;;;;;;16.30;77.44;99704.03;1760507;81;21049;-67
2021/07/25 01:19:18;;;;;;;;;;;;;;;16.32;77.36;99711.42;1763725;80;21006;-68
2021/07/25 01:21:44;;;;;;;15.30;11.78;;;;;;;16.31;77.35;99710.34;1760603;81;20148;-67
2021/07/25 01:24:10;;;;;;;;;;;;;;;16.27;77.50;99714.83;1763227;80;21001;-67
2021/07/25 01:26:39;;;;;;;17.40;12.25;;;;;;;16.27;77.61;99714.27;1761149;81;20126;-66
2021/07/25 01:29:05;;;;;;;16.20;12.07;;;;;;;16.18;78.11;99710.64;1761128;80;21010;-67
2021/07/25 01:31:38;;;;;;;;;;;;;;;16.22;78.34;99709.47;1763969;81;21690;-67
2021/07/25 01:34:04;;;;;;;13.53;10.58;;;;;;;16.29;78.34;99709.30;1761138;80;20129;-66
2021/07/25 01:36:31;;;;;;;;;;;;;;;16.27;78.30;99710.15;1761820;81;21596;-66
2021/07/25 01:38:57;;;;;;;12.93;11.30;;;;;;;16.27;78.19;99710.15;1745610;82;20130;-66
2021/07/25 01:41:24;;;;;;;15.60;12.25;;;;;;;16.24;78.24;99711.33;1716591;82;21048;-66
2021/07/25 01:43:51;;;;;;;;;;;;;;;16.23;78.31;99716.01;1720330;82;21011;-67
2021/07/25 01:46:18;;;;;;;14.98;11.95;;;;;;;16.21;78.46;99715.52;1716731;82;20114;-67
2021/07/25 01:48:45;;;;;;;16.25;11.88;;;;;;;16.17;78.67;99713.13;1733801;82;21046;-66
2021/07/25 01:51:12;;;;;;;;;;;;;;;16.23;78.66;99713.27;1749900;81;21682;-67
2021/07/25 01:53:39;;;;;;;15.98;11.33;;;;;;;16.28;78.59;99715.09;1746806;82;20129;-67
2021/07/25 01:56:06;;;;;;;19.95;11.85;;;;;;;16.26;78.68;99716.76;1712032;82;21542;-66
2021/07/25 01:58:32;;;;;;;14.63;11.57;;;;;;;16.28;78.56;99714.53;1722393;82;21364;-67
2021/07/25 02:00:58;;;;;;;;;;;;;;;16.30;78.27;99716.95;1748303;81;21561;-66
2021/07/25 02:03:26;;;;;;;16.85;12.40;;;;;;;16.23;77.85;99719.31;1729535;82;20111;-67
2021/07/25 02:05:53;;;;;;;15.90;12.13;;;;;;;16.10;78.29;99718.23;1747554;81;21564;-67
2021/07/25 02:08:19;;;;;;;15.10;11.65;;;;;;;16.10;78.41;99720.16;1747174;82;21097;-67
2021/07/25 02:10:47;;;;;;;16.25;12.03;;;;;;;16.15;78.27;99720.88;1741423;81;21125;-67
2021/07/25 02:13:14;;;;;;;16.05;11.93;;;;;;;16.18;78.22;99720.81;1743192;82;21612;-67
2021/07/25 02:15:40;;;;;;;16.80;12.13;;;;;;;16.19;77.93;99724.61;1747852;81;21043;-67
2021/07/25 02:18:07;;;;;;;16.23;12.93;;;;;;;16.17;77.75;99724.13;1747499;80;20986;-67
2021/07/25 02:20:33;;;;;;;16.50;12.18;;;;;;;16.08;77.71;99728.73;1747860;81;20998;-67
2021/07/25 02:23:00;;;;;;;16.40;12.43;;;;;;;16.03;77.71;99732.95;1726015;82;21047;-67
2021/07/25 02:25:27;;;;;;;14.10;11.53;;;;;;;16.02;77.64;99729.94;1716408;82;21056;-67
2021/07/25 02:27:55;;;;;;;14.18;11.78;;;;;;;15.99;77.77;99729.19;1716977;82;20984;-68
2021/07/25 02:30:21;;;;;;;14.40;11.40;;;;;;;15.96;77.83;99723.50;1716201;82;21036;-68
2021/07/25 02:32:47;;;;;;;;;;;;;;;15.95;78.00;99728.17;1748659;82;21629;-67
2021/07/25 02:35:14;;;;;;;14.40;11.88;;;;;;;15.96;78.24;99730.36;1747520;81;20493;-66
2021/07/25 02:37:40;;;;;;;15.53;12.43;;;;;;;15.90;78.73;99735.16;1697921;84;21039;-67
2021/07/25 02:40:07;;;;;;;;;;;;;;;15.90;79.16;99736.53;1675912;84;21659;-67
2021/07/25 02:42:33;;;;;;;15.75;11.48;;;;;;;15.96;79.07;99733.92;1725574;83;20105;-67
2021/07/25 02:45:00;;;;;;;18.27;12.20;;;;;;;15.93;78.87;99735.36;1725142;82;21106;-67
2021/07/25 02:47:26;;;;;;;15.30;12.28;;;;;;;15.94;78.82;99742.45;1724743;83;21101;-67
2021/07/25 02:49:52;;;;;;;16.80;11.25;;;;;;;15.94;78.80;99743.82;1724758;83;21048;-68
2021/07/25 02:52:18;;;;;;;;;;;;;;;16.00;78.95;99747.84;1727172;83;21046;-68
2021/07/25 02:54:45;;;;;;;16.85;11.60;;;;;;;16.07;79.14;99748.25;1724726;82;20105;-68
2021/07/25 02:57:11;;;;;;;;;;;;;;;16.08;79.40;99745.20;1726536;82;21015;-67
2021/07/25 02:59:38;;;;;;;19.90;12.40;;;;;;;16.10;79.53;99742.13;1724648;82;20412;-67
2021/07/25 03:02:04;;;;;;;16.67;11.88;;;;;;;16.06;79.75;99747.98;1723862;83;21040;-68
2021/07/25 03:04:31;;;;;;;;;;;;;;;16.14;79.72;99749.45;1727388;83;21670;-68
2021/07/25 03:06:57;;;;;;;15.48;11.60;;;;;;;16.25;79.64;99752.80;1723517;83;20514;-68
2021/07/25 03:09:23;;;;;;;19.75;11.38;;;;;;;16.25;79.49;99752.23;1706662;83;21098;-68
2021/07/25 03:11:49;;;;;;;;;;;;;;;16.32;79.33;99744.94;1727144;83;21495;-67
2021/07/25 03:14:16;;;;;;;18.10;12.78;;;;;;;16.36;79.31;99753.64;1725254;82;20187;-68
2021/07/25 03:16:47;;;;;;;15.93;11.30;;;;;;;16.32;79.55;99749.06;1724113;83;21616;-68
2021/07/25 03:19:13;;;;;;;17.55;11.93;;;;;;;16.36;79.54;99753.64;1706607;83;20983;-67
2021/07/25 03:21:40;;;;;;;16.02;11.80;;;;;;;16.44;79.34;99751.51;1694751;83;21029;-68
2021/07/25 03:24:07;;;;;;;15.75;12.37;;;;;;;16.53;79.25;99758.47;1690432;84;21545;-67
2021/07/25 03:26:33;;;;;;;;;;;;;;;16.62;79.18;99761.30;1695089;83;21524;-68
2021/07/25 03:28:59;;;;;;;14.38;11.90;;;;;;;16.71;78.99;99758.08;1691170;85;20115;-67
2021/07/25 03:31:26;;;;;;;15.65;11.75;;;;;;;16.70;79.01;99759.19;1725002;82;21090;-68
2021/07/25 03:33:53;;;;;;;;;;;;;;;16.76;79.17;99756.00;1727532;83;21046;-68
2021/07/25 03:36:22;;;;;;;13.67;11.87;;;;;;;16.81;79.41;99758.64;1718365;82;20097;-68
2021/07/25 03:38:48;;;;;;;17.95;12.85;;;;;;;16.90;79.69;99762.25;1702513;84;21117;-68
2021/07/25 03:41:14;;;;;;;;;;;;;;;17.09;79.47;99760.69;1755398;81;21030;-68
2021/07/25 03:43:40;;;;;;;16.60;12.60;;;;;;;17.30;79.13;99761.78;1752853;82;20157;-68
2021/07/25 03:46:07;;;;;;;16.45;12.43;;;;;;;17.48;79.10;99771.50;1728598;81;21063;-68
2021/07/25 03:48:34;;;;;;;14.53;11.90;;;;;;;17.74;79.10;99766.97;1721296;83;21489;-68
2021/07/25 03:51:00;;;;;;;14.68;11.30;;;;;;;18.07;78.82;99781.14;1672309;83;21063;-68
2021/07/25 03:53:26;;;;;;;;;;;;;;;18.45;78.20;99784.16;1724159;83;21067;-68
2021/07/25 03:55:52;;;;;;;17.17;10.72;;;;;;;18.82;77.64;99777.47;1739795;82;20550;-68
2021/07/25 03:58:19;;;;;;;13.83;12.30;;;;;;;19.09;77.04;99777.70;1752706;82;21042;-68
2021/07/25 04:00:45;;;;;;;;;;;;;;;19.44;75.94;99781.80;1755396;81;21080;-67
2021/07/25 04:03:11;;;;;;;18.02;11.75;;;;;;;19.74;74.78;99779.31;1753182;82;20459;-67
2021/07/25 04:05:38;;;;;;;16.62;12.07;;;;;;;20.00;73.90;99776.44;1752563;81;21070;-67
2021/07/25 04:08:11;;;;;;;17.15;13.00;;;;;;;20.37;72.67;99779.73;1752691;82;21128;-68
2021/07/25 04:10:43;;;;;;;19.70;12.13;;;;;;;20.76;70.93;99777.89;1750653;81;21050;-68
2021/07/25 04:13:10;;;;;;;17.00;11.78;;;;;;;21.12;69.62;99770.36;1752994;82;21018;-67
2021/07/25 04:15:40;;;;;;;18.92;12.75;;;;;;;21.49;68.11;99771.85;1752585;81;21047;-68
2021/07/25 04:18:07;;;;;;;13.60;11.70;;;;;;;21.79;66.26;99781.58;1750834;82;21010;-68
2021/07/25 04:20:33;;;;;;;14.93;11.83;;;;;;;22.08;64.86;99780.02;1752650;81;21588;-68
2021/07/25 04:23:02;;;;;;;14.40;11.35;;;;;;;22.37;63.44;99777.56;1752777;82;21006;-68
2021/07/25 04:25:31;;;;;;;14.80;11.60;;;;;;;22.66;62.24;99777.28;1752729;81;21054;-68
2021/07/25 04:27:59;;;;;;;17.12;11.43;;;;;;;22.97;61.74;99772.45;1747997;82;21014;-68
2021/07/25 04:30:28;;;;;;;13.22;11.40;;;;;;;23.19;60.72;99773.30;1707081;83;21076;-68
2021/07/25 04:32:57;;;;;;;13.98;12.00;;;;;;;23.23;59.48;99775.59;1751489;82;21694;-67
2021/07/25 04:35:24;;;;;;;15.88;11.30;;;;;;;22.99;58.88;99775.67;1752947;81;21022;-72
2021/07/25 04:37:54;;;;;;;13.18;11.70;;;;;;;22.72;59.42;99780.63;1751054;80;21435;-69
2021/07/25 04:40:21;;;;;;;16.77;11.35;;;;;;;22.68;60.31;99786.08;1747219;81;21109;-68
2021/07/25 04:42:50;;;;;;;14.28;11.97;;;;;;;22.93;60.22;99784.03;1747504;82;21042;-68
2021/07/25 04:45:31;;;;;;;14.25;11.88;;;;;;;23.25;60.00;99779.38;1747357;81;21104;-68
2021/07/25 04:48:23;;;;;;;16.50;11.68;;;;;;;23.64;59.61;99788.22;1746633;82;20996;-68
2021/07/25 04:50:54;;;;;;;15.25;11.70;;;;;;;24.05;58.72;99791.06;1746705;81;21600;-68
2021/07/25 04:53:24;;;;;;;14.93;11.03;;;;;;;24.67;57.69;99788.75;1747474;82;21033;-68
2021/07/25 04:55:58;;;;;;;13.05;11.00;;;;;;;25.01;56.13;99792.67;1745287;81;21081;-68
2021/07/25 04:58:51;;;;;;;12.23;10.60;;;;;;;25.01;56.13;99792.67;1746982;82;20994;-68
2021/07/25 05:01:24;;;;;;;13.85;11.03;;;;;;;25.30;55.41;99798.80;1712412;82;21670;-68
2021/07/25 05:03:51;;;;;;;14.00;11.28;;;;;;;25.58;54.11;99799.38;1715561;82;21075;-68
2021/07/25 05:06:21;;;;;;;14.40;11.33;;;;;;;25.54;52.92;99800.70;1747060;81;21554;-68
2021/07/25 05:08:49;;;;;;;12.45;10.40;;;;;;;25.34;52.73;99802.47;1746966;82;21592;-68
2021/07/25 05:11:22;;;;;;;13.48;10.95;;;;;;;25.29;53.60;99802.79;1746740;81;21049;-68
2021/07/25 05:13:51;;;;;;;15.80;10.88;;;;;;;25.42;53.52;99800.05;1745868;82;21069;-68
2021/07/25 05:16:28;;;;;;;14.68;11.05;;;;;;;25.63;53.84;99809.65;1730148;81;21882;-68
2021/07/25 05:19:12;;;;;;;12.63;10.68;;;;;;;25.91;53.66;99803.77;1747462;82;21092;-69
2021/07/25 05:21:42;;;;;;;14.90;11.18;;;;;;;26.17;51.83;99805.80;1747626;82;21029;-68
2021/07/25 05:24:09;;;;;;;13.60;11.00;;;;;;;26.24;50.25;99798.97;1747228;81;21052;-69
2021/07/25 05:26:37;;;;;;;13.05;10.90;;;;;;;26.08;50.58;99795.47;1739083;82;20936;-69
2021/07/25 05:29:03;;;;;;;12.28;10.35;;;;;;;25.95;50.96;99799.64;1716246;82;21050;-69
2021/07/25 05:31:31;;;;;;;14.43;10.93;;;;;;;26.03;51.55;99802.19;1713116;82;21027;-69
2021/07/25 05:33:58;;;;;;;13.95;10.25;;;;;;;26.18;51.79;99804.66;1725015;82;20997;-69
2021/07/25 05:36:25;;;;;;;13.13;11.48;;;;;;;26.37;50.81;99804.55;1747547;81;21662;-70
2021/07/25 05:38:51;;;;;;;14.07;10.50;;;;;;;26.29;50.94;99801.42;1755512;81;21013;-69
2021/07/25 05:41:17;;;;;;;11.83;10.40;;;;;;;26.37;50.97;99810.71;1760769;80;21017;-69
2021/07/25 05:43:44;;;;;;;11.53;10.30;;;;;;;26.21;50.70;99806.70;1760653;81;21077;-69
2021/07/25 05:46:10;;;;;;;11.57;10.00;;;;;;;26.09;52.18;99806.85;1760925;80;21041;-70
2021/07/25 05:48:38;;;;;;;11.43;10.03;;;;;;;26.17;52.19;99799.66;1755905;81;21013;-69
2021/07/25 05:51:04;;;;;;;11.55;9.90;;;;;;;26.42;52.04;99804.82;1760482;80;21032;-69
2021/07/25 05:53:31;;;;;;;13.22;9.60;;;;;;;26.69;51.01;99807.21;1756703;81;21391;-68
2021/07/25 05:55:58;;;;;;;11.75;10.00;;;;;;;26.93;50.17;99811.55;1757440;80;21120;-70
2021/07/25 05:58:24;;;;;;;11.25;9.60;;;;;;;27.05;49.81;99810.50;1760796;81;21033;-68
2021/07/25 06:00:52;;;;;;;11.20;8.90;;;;;;;27.08;48.95;99806.95;1760791;80;21038;-69
2021/07/25 06:03:19;;;;;;;10.35;8.10;;;;;;;27.08;48.84;99805.55;1760406;81;21009;-69
2021/07/25 06:05:45;;;;;;;11.78;8.88;;;;;;;27.15;47.67;99798.06;1759799;80;21582;-70
2021/07/25 06:08:11;;;;;;;10.45;8.38;;;;;;;27.38;48.07;99798.53;1759985;81;21014;-68
2021/07/25 06:10:42;;;;;;;9.88;8.53;;;;;;;27.57;46.74;99803.34;1757083;80;21674;-69
2021/07/25 06:13:08;;;;;;;12.45;8.73;;;;;;;27.76;47.62;99799.55;1743341;81;21056;-67
2021/07/25 06:15:35;;;;;;;9.35;8.00;;;;;;;27.97;45.72;99791.34;1750788;80;21078;-67
2021/07/25 06:18:02;;;;;;;10.48;8.78;;;;;;;28.12;45.90;99802.91;1749915;81;21068;-70
2021/07/25 06:20:30;;;;;;;10.32;8.60;;;;;;;28.26;45.01;99800.80;1749315;80;21036;-68
2021/07/25 06:22:56;;;;;;;9.50;8.15;;;;;;;28.25;45.78;99801.18;1755677;81;20931;-69
2021/07/25 06:25:26;;;;;;;10.90;8.80;;;;;;;28.33;46.06;99806.45;1752635;80;21100;-70
2021/07/25 06:27:55;;;;;;;10.75;8.58;;;;;;;28.37;45.62;99806.48;1760043;81;21432;-70
2021/07/25 06:30:22;;;;;;;11.30;9.00;;;;;;;28.45;45.71;99807.52;1759764;80;21490;-71
2021/07/25 06:33:06;;;;;;;13.72;11.05;;;;;;;28.52;45.67;99805.39;1760164;81;20950;-71
2021/07/25 06:35:36;;;;;;;16.00;12.03;;;;;;;28.49;46.44;99806.14;1755827;81;21092;-70
2021/07/25 06:38:05;;;;;;;16.32;11.88;;;;;;;28.61;46.38;99808.04;1737408;81;21132;-69
2021/07/25 06:40:32;;;;;;;11.33;9.40;;;;;;;28.66;46.73;99812.48;1721935;82;21043;-70
2021/07/25 06:43:00;;;;;;;11.20;8.70;;;;;;;28.79;46.47;99819.38;1728152;82;20982;-70
2021/07/25 06:45:26;;;;;;;12.90;8.73;;;;;;;28.90;45.49;99813.83;1738022;82;21098;-71
2021/07/25 06:47:53;;;;;;;11.68;9.43;;;;;;;29.02;44.50;99817.08;1744227;82;20983;-70
2021/07/25 06:50:20;;;;;;;8.80;7.90;;;;;;;29.17;43.72;99820.75;1739017;82;21051;-71
2021/07/25 06:52:48;;;;;;;12.20;9.10;;;;;;;29.26;44.01;99819.00;1740058;82;20992;-69
2021/07/25 06:55:15;;;;;;;10.00;8.65;;;;;;;29.29;44.96;99826.64;1751935;80;21029;-69
2021/07/25 06:57:41;;;;;;;11.73;8.70;;;;;;;29.33;45.04;99828.86;1752346;82;21422;-69
2021/07/25 07:00:09;;;;;;;11.28;8.68;;;;;;;29.54;45.23;99829.73;1752102;81;21121;-69
2021/07/25 07:02:53;;;;;;;10.78;8.70;;;;;;;29.71;44.96;99825.35;1752045;82;20981;-69
2021/07/25 07:05:25;;;;;;;10.55;8.48;;;;;;;29.74;44.44;99831.56;1751573;81;21034;-69
2021/07/25 07:07:55;;;;;;;10.88;8.40;;;;;;;29.77;43.87;99837.78;1752108;82;21430;-70
2021/07/25 07:10:34;;;;;;;9.70;7.25;;;;;;;29.82;44.05;99833.79;1753073;81;21723;-71
2021/07/25 07:13:04;;;;;;;11.12;7.67;;;;;;;29.84;42.56;99834.17;1752041;82;21352;-71
2021/07/25 07:15:31;;;;;;;11.40;7.15;;;;;;;29.85;43.34;99828.21;1752136;80;21089;-70
2021/07/25 07:17:58;;;;;;;8.15;6.92;;;;;;;29.83;41.90;99831.20;1743815;82;21507;-70
2021/07/25 07:20:24;;;;;;;10.75;6.70;;;;;;;29.95;42.04;99829.41;1723306;82;21114;-70
2021/07/25 07:23:01;;;;;;;7.62;6.83;;;;;;;30.12;41.00;99829.42;1737099;82;21041;-71
2021/07/25 07:25:32;;;;;;;9.18;6.00;;;;;;;30.32;39.54;99823.42;1752082;81;21478;-71
2021/07/25 07:27:58;;;;;;;8.35;5.90;;;;;;;30.50;37.12;99824.23;1730682;82;20999;-71
2021/07/25 07:30:25;;;;;;;7.22;6.12;;;;;;;30.47;36.85;99826.42;1722655;82;21106;-71
2021/07/25 07:32:51;;;;;;;7.90;6.62;;;;;;;30.48;36.19;99823.82;1743563;82;21497;-71
2021/07/25 07:35:24;;;;;;;7.47;6.20;;;;;;;30.37;37.67;99822.40;1752669;81;21129;-70
2021/07/25 07:37:51;;;;;;;8.40;6.08;;;;;;;30.34;37.94;99826.61;1752164;82;21033;-71
2021/07/25 07:40:18;;;;;;;7.95;6.35;;;;;;;30.39;36.58;99825.63;1744386;81;21106;-70
2021/07/25 07:42:45;;;;;;;8.78;6.70;;;;;;;30.55;36.81;99829.42;1740465;82;21514;-70
2021/07/25 07:45:11;;;;;;;8.50;6.58;;;;;;;30.62;37.26;99829.41;1745195;81;21083;-72
2021/07/25 07:47:38;;;;;;;9.28;5.72;;;;;;;30.58;36.14;99830.02;1732547;82;20997;-71
2021/07/25 07:50:05;;;;;;;7.95;5.37;;;;;;;30.64;36.89;99829.83;1733508;81;21002;-71
2021/07/25 07:52:31;;;;;;;6.90;6.05;;;;;;;30.70;34.04;99830.20;1747562;82;20983;-71
2021/07/25 07:54:58;;;;;;;7.65;6.17;;;;;;;30.54;35.05;99830.63;1747024;81;21066;-71
2021/07/25 07:57:24;;;;;;;6.47;5.60;;;;;;;30.57;35.76;99832.65;1747259;82;20986;-72
2021/07/25 07:59:50;;;;;;;9.20;5.62;;;;;;;30.80;35.86;99834.99;1747457;81;21054;-71
2021/07/25 08:02:17;;;;;;;7.22;6.10;;;;;;;30.90;33.88;99832.16;1746534;82;21025;-71
2021/07/25 08:04:44;;;;;;;8.35;6.75;;;;;;;30.86;34.55;99835.57;1733434;82;21043;-71
2021/07/25 08:07:11;;;;;;;6.97;5.75;;;;;;;30.78;34.50;99839.63;1738323;82;20971;-70
2021/07/25 08:09:38;;;;;;;8.50;6.10;;;;;;;30.89;34.57;99836.16;1745283;81;21018;-70
2021/07/25 08:12:06;;;;;;;8.15;5.87;;;;;;;30.55;35.14;99838.66;1742598;82;21681;-71
2021/07/25 08:14:34;;;;;;;8.05;5.35;;;;;;;30.39;36.53;99834.05;1719545;81;21042;-70
2021/07/25 08:17:00;;;;;;;11.28;5.85;;;;;;;30.25;36.22;99838.27;1747313;82;21022;-71
2021/07/25 08:19:27;;;;;;;7.67;6.22;;;;;;;30.15;36.67;99829.84;1744842;81;21032;-71
2021/07/25 08:21:54;;;;;;;7.00;6.30;;;;;;;29.91;37.02;99828.61;1747368;82;20999;-71
2021/07/25 08:24:20;;;;;;;8.68;6.03;;;;;;;30.04;38.74;99832.02;1747217;81;21515;-71
2021/07/25 08:26:46;;;;;;;8.83;6.72;;;;;;;30.38;37.89;99831.63;1729639;82;21049;-73
2021/07/25 08:29:12;;;;;;;10.88;6.65;;;;;;;30.55;37.18;99833.04;1747153;81;21007;-71
2021/07/25 08:31:39;;;;;;;9.93;6.65;;;;;;;30.61;36.54;99830.61;1727004;82;21027;-76
2021/07/25 08:34:06;;;;;;;9.63;6.78;;;;;;;30.65;37.98;99830.60;1738187;81;21015;-76
2021/07/25 08:36:32;;;;;;;7.00;6.10;;;;;;;30.48;36.23;99832.25;1729735;82;21487;-71
2021/07/25 08:39:00;;;;;;;7.12;6.17;;;;;;;30.08;36.87;99837.64;1716220;83;21503;-70
2021/07/25 08:42:02;;;;;;;7.87;6.35;;;;;;;29.98;37.46;99839.24;1726304;82;21041;-76
2021/07/25 08:44:53;;;;;;;9.73;5.85;;;;;;;29.91;37.25;99839.23;1735057;82;21601;-72
2021/07/25 08:47:25;;;;;;;6.67;6.03;;;;;;;29.74;38.46;99833.56;1718646;82;21448;-71
2021/07/25 08:50:01;;;;;;;7.87;6.12;;;;;;;29.89;37.80;99838.84;1736113;81;21557;-72
2021/07/25 08:52:31;;;;;;;;;;;;;;;30.16;36.21;99841.25;1750274;82;20991;-72
2021/07/25 08:55:01;;;;;;;9.85;5.90;;;;;;;30.10;36.07;99845.08;1745178;81;20099;-73
2021/07/25 08:57:32;;;;;;;6.87;6.15;;;;;;;29.87;36.07;99843.23;1747536;82;21553;-74
2021/07/25 08:59:59;;;;;;;7.08;5.90;;;;;;;29.76;36.75;99843.81;1746341;81;21117;-74
2021/07/25 09:02:29;;;;;;;6.80;5.50;;;;;;;29.64;37.09;99844.98;1747386;82;21061;-71
2021/07/25 09:04:56;;;;;;;7.78;6.97;;;;;;;29.53;36.83;99839.34;1746838;81;21580;-71
2021/07/25 09:07:26;;;;;;;7.35;5.97;;;;;;;29.51;37.24;99840.94;1747481;82;21520;-69
2021/07/25 09:10:00;;;;;;;7.53;5.90;;;;;;;29.47;37.02;99848.54;1747320;81;21018;-70
2021/07/25 09:12:26;;;;;;;6.65;5.45;;;;;;;29.40;37.30;99847.92;1744855;82;21014;-70
2021/07/25 09:14:56;;;;;;;7.03;5.55;;;;;;;29.40;38.01;99842.31;1746038;81;21086;-73
2021/07/25 09:17:23;;;;;;;8.30;5.83;;;;;;;29.45;37.09;99828.48;1716461;82;21035;-70
2021/07/25 09:20:22;;;;;;;7.60;5.97;;;;;;;29.60;36.03;99834.34;1729057;81;21147;-72
2021/07/25 09:22:54;;;;;;;6.45;5.70;;;;;;;29.77;35.81;99844.80;1743045;82;20977;-69
2021/07/25 09:25:39;;;;;;;6.30;5.62;;;;;;;29.92;34.95;99842.84;1745817;81;21041;-70
2021/07/25 09:28:24;;;;;;;8.40;5.60;;;;;;;30.05;35.04;99842.66;1715861;82;21023;-71
2021/07/25 09:30:50;;;;;;;7.50;5.47;;;;;;;30.18;34.04;99838.27;1738510;82;21416;-70
2021/07/25 09:33:34;;;;;;;7.95;5.10;;;;;;;30.22;32.95;99853.71;1743770;82;20954;-71
2021/07/25 09:43:26;;;;;;;10.63;8.58;;;;;;;29.81;33.02;99847.01;1744535;79;28294;-65
2021/07/25 09:45:54;;;;;;;7.80;6.53;;;;;;;29.99;34.10;99854.89;1697388;83;21031;-64
2021/07/25 09:48:33;;;;;;;10.32;5.90;;;;;;;30.13;33.69;99848.48;1714037;82;21072;-65
2021/07/25 09:51:03;;;;;;;8.00;5.78;;;;;;;29.97;34.74;99859.30;1717589;83;20999;-65
2021/07/25 09:53:44;;;;;;;7.30;5.55;;;;;;;29.80;34.64;99860.83;1703309;83;21057;-66
2021/07/25 09:56:12;;;;;;;6.35;5.33;;;;;;;29.68;35.12;99857.61;1714519;83;21010;-65
2021/07/25 09:58:39;;;;;;;8.03;5.20;;;;;;;29.49;34.38;99850.34;1718351;82;21011;-65
2021/07/25 10:01:06;;;;;;;8.28;5.80;;;;;;;29.36;35.43;99855.52;1716339;83;20983;-66
2021/07/25 10:03:33;;;;;;;7.20;5.30;;;;;;;29.32;34.84;99856.69;1711292;82;21046;-66
2021/07/25 10:06:20;;;;;;;6.78;5.92;;;;;;;29.28;35.12;99855.87;1712132;83;21517;-66
2021/07/25 10:09:08;;;;;;;6.72;5.72;;;;;;;29.26;35.31;99857.68;1721393;82;21117;-66
2021/07/25 10:11:35;;;;;;;7.95;5.85;;;;;;;29.18;35.15;99855.20;1728410;82;21079;-66
2021/07/25 10:14:01;;;;;;;9.55;6.80;;;;;;;29.19;36.38;99854.81;1731026;83;20966;-66
2021/07/25 10:16:28;;;;;;;7.53;6.80;;;;;;;29.23;37.61;99851.40;1709283;83;21050;-66
2021/07/25 10:18:55;;;;;;;9.25;5.95;;;;;;;29.31;37.90;99850.27;1725811;82;21030;-66
2021/07/25 10:21:22;;;;;;;8.18;5.60;;;;;;;29.41;36.92;99843.09;1700662;83;20995;-66
2021/07/25 10:23:52;;;;;;;6.00;5.40;;;;;;;29.44;35.57;99850.11;1703053;82;21497;-66
2021/07/25 10:26:18;;;;;;;6.55;5.45;;;;;;;29.51;34.62;99844.52;1704713;83;21513;-65
2021/07/25 10:28:44;;;;;;;9.30;5.15;;;;;;;29.71;35.31;99856.81;1701504;82;21142;-66
2021/07/25 10:31:11;;;;;;;6.75;5.70;;;;;;;29.81;33.95;99846.20;1727553;82;21141;-65
2021/07/25 10:33:38;;;;;;;6.40;5.42;;;;;;;29.97;35.47;99845.27;1719666;83;21526;-65
2021/07/25 10:36:05;;;;;;;8.70;5.67;;;;;;;30.18;35.54;99845.88;1717655;82;20998;-66
2021/07/25 10:38:32;;;;;;;6.65;5.92;;;;;;;30.28;34.04;99841.67;1717360;82;21029;-66
2021/07/25 10:40:59;;;;;;;10.60;6.30;;;;;;;30.48;34.73;99842.88;1725038;82;20987;-66
2021/07/25 10:43:25;;;;;;;9.78;5.83;;;;;;;30.69;33.33;99845.45;1716962;82;21016;-67
2021/07/25 10:46:18;;;;;;;7.28;5.85;;;;;;;30.86;33.34;99839.79;1723668;83;21580;-66
2021/07/25 10:49:05;;;;;;;6.15;5.50;;;;;;;31.03;33.60;99843.80;1714604;83;20992;-67
2021/07/25 10:51:33;;;;;;;7.45;5.92;;;;;;;31.01;33.36;99846.20;1707576;83;20968;-66
2021/07/25 10:54:28;;;;;;;7.05;5.72;;;;;;;30.84;34.83;99848.44;1693966;83;20971;-66
2021/07/25 10:57:10;;;;;;;8.03;5.80;;;;;;;30.97;35.48;99849.63;1704893;83;21028;-67
2021/07/25 10:59:45;;;;;;;6.58;5.22;;;;;;;31.09;34.15;99851.41;1717670;83;20952;-67
2021/07/25 11:02:24;;;;;;;9.05;5.65;;;;;;;31.29;35.67;99842.48;1714054;83;21106;-67
2021/07/25 11:04:59;;;;;;;6.28;5.30;;;;;;;31.39;34.16;99846.65;1657989;86;21021;-67
2021/07/25 11:07:33;;;;;;;7.37;5.83;;;;;;;31.31;33.30;99840.88;1705989;83;21071;-67
2021/07/25 11:10:06;;;;;;;6.30;5.20;;;;;;;31.21;32.55;99847.36;1702303;83;21044;-67
2021/07/25 11:12:57;;;;;;;6.03;5.05;;;;;;;31.01;33.47;99842.80;1717658;83;21040;-67
2021/07/25 11:15:32;;;;;;;9.43;5.90;;;;;;;31.12;34.38;99841.95;1692365;83;21051;-68
2021/07/25 11:18:16;;;;;;;6.35;5.40;;;;;;;31.23;32.83;99835.09;1687699;85;21114;-67
2021/07/25 11:21:04;;;;;;;7.80;5.15;;;;;;;31.20;33.19;99842.94;1709538;83;20995;-66
2021/07/25 11:23:33;;;;;;;7.45;6.05;;;;;;;31.11;33.79;99838.96;1717270;83;21110;-68
2021/07/25 11:25:58;;;;;;;9.15;6.15;;;;;;;30.97;34.32;99835.57;1710397;83;21513;-66
2021/07/25 11:28:44;;;;;;;8.05;6.55;;;;;;;30.93;35.26;99840.37;1706723;83;21067;-66
2021/07/25 11:31:14;;;;;;;9.15;6.85;;;;;;;30.79;34.43;99836.19;1713189;84;20956;-67
2021/07/25 11:33:47;;;;;;;7.55;5.90;;;;;;;30.61;34.16;99830.02;1712975;82;21101;-67
2021/07/25 11:36:16;;;;;;;6.90;5.92;;;;;;;30.64;33.74;99822.80;1688725;83;21071;-66
2021/07/25 11:38:49;;;;;;;7.80;5.90;;;;;;;30.89;34.05;99829.77;1702455;83;21107;-68
2021/07/25 11:41:21;;;;;;;8.48;6.05;;;;;;;31.03;34.42;99833.97;1695668;84;21451;-68
2021/07/25 11:44:07;;;;;;;8.93;6.10;;;;;;;31.02;35.23;99827.54;1699002;84;21613;-68
2021/07/25 11:46:43;;;;;;;7.92;5.60;;;;;;;31.03;35.35;99824.94;1720834;83;21459;-68
2021/07/25 11:49:20;;;;;;;6.83;5.70;;;;;;;30.98;35.58;99824.53;1730834;82;20998;-69
2021/07/25 11:52:00;;;;;;;8.58;6.15;;;;;;;30.95;36.32;99833.75;1731071;82;20948;-68
2021/07/25 11:54:38;;;;;;;7.65;6.08;;;;;;;30.89;35.55;99828.36;1723357;83;21403;-68